AirNav   Air Wisconsin Up To $57,000 Bonus
 
 916 users online  

7GA4 Danville Airpark
Danville, Georgia, USA

GOING TO DANVILLE?


FAA INFORMATION EFFECTIVE 18 JULY 2019

Location

FAA Identifier: 7GA4
Lat/Long: 32-34-51.5590N / 083-16-03.5760W
32-34.859317N / 083-16.059600W
32.5809886 / -83.2676600
(estimated)
Elevation: 459 ft. / 139.9 m (surveyed)
Variation: 03W (1985)
From city: 2 miles SW of DANVILLE, GA
Time zone: UTC -4 (UTC -5 during Standard Time)
Zip code: 31017

Airport Operations

Airport use: Private use. Permission required prior to landing
Activation date: 03/1980
Control tower: no
ARTCC: ATLANTA CENTER
FSS: MACON FLIGHT SERVICE STATION
Attendance: DAYLIGHT HOURS
Wind indicator: yes
Segmented circle: no

Airport Communications

WX AWOS-3PT at 48A (11 nm S): 120.975 (478-271-5897)
WX AWOS-3 at DBN (14 nm E): 118.425 (478-277-9051)

Nearby radio navigation aids

VOR radial/distance  VOR name  Freq  Var
MCNr108/20.3MACON VORTAC114.2001E
DBNr278/22.2DUBLIN VORTAC113.1005W
VNAr027/24.9VIENNA VORTAC116.5001E

 
NDB name  Hdg/Dist  Freq  Var  ID
CREKE298/14.225104WDB -.. -...
EASTMAN352/27.636604WEZM . --.. --
CULVR193/34.738004WUMB ..- -- -...
MC RAE329/35.128003WMQW -- --.- .--
MONTEZUMA075/39.642604WIZS .. --.. ...

Airport Services

Runway Information

Runway 9/27

Dimensions: 2400 x 60 ft. / 732 x 18 m
Surface: turf
RUNWAY 9  RUNWAY 27
Traffic pattern: leftleft
Obstructions: trees, 300 ft. from runwaypline, 100 ft. from runway

Airport Ownership and Management from official FAA records

Ownership: Privately-owned
Owner: D.A. NEAL
323 AIRPORT RD
DANVILLE, GA 31017
Phone 912-962-3609
Manager: B. NEAL
323 AIRPORT RD
DANVILLE, GA 31017
Phone 912-962-3609
ADDITIONAL CONTACT E. NEAL 954-684-0236

Airport Operational Statistics

Aircraft based on the field: 2
Single engine airplanes: 1
Ultralights: 1
    

Additional Remarks

FOR CD CTC ATLANTA APCH AT 678-364-6132, WHEN APCH CLSD CTC ATLANTA ARTCC AT 770-210-7692.

Instrument Procedures

There are no published instrument procedures at 7GA4.

Some nearby airports with instrument procedures:

48A - Cochran Airport (11 nm S)
KDBN - W H 'Bud' Barron Airport (14 nm E)
KWRB - Robins Air Force Base (17 nm W)
KMCN - Middle Georgia Regional Airport (20 nm W)
KMAC - Macon Downtown Airport (21 nm NW)
 
Loc | Ops | Rwys | IFR | FBO | Links
Com | Nav | Svcs | Stats | Notes
Area around 7GA4 (Danville Airpark)
 
Road maps at: MapQuest Bing Google
 
Aerial photo
No photo
 
Sectional chart

 
Airport distance calculator
Flying to Danville Airpark? Find the distance to fly.

From to 7GA4

Sunrise and sunset
Times for 20-Jul-2019
 Local
(UTC-4)
 Zulu
(UTC)
Morning civil twilight06:1310:13
Sunrise06:4010:40
Sunset20:3800:38
Evening civil twilight21:0601:06

Current date and time
Zulu (UTC)  20-Jul-2019 12:58:41
Local (UTC-4)  20-Jul-2019 08:58:41
 
METAR
KDBN 
14nm E 
201235Z AUTO 20004KT 1 3/4SM BR OVC003 21/21 A3014 RMK AO2
KWRB 
16nm W 
201208Z 20005KT 10SM OVC005 23/22 A3010 RMK AO2A SLP193
KMCN 
20nm W 
201253Z 21005KT 7SM OVC005 23/22 A3012 RMK AO2 SLP195 T02330217
KEZM 
23nm S 
201235Z AUTO 23003KT 3SM BR OVC002 21/21 A3015 RMK AO2 T02140213
KPXE 
26nm W 
201235Z AUTO 21006KT 2 1/2SM BR OVC003 23/22 A3012 RMK AO2 T02260223
TAF
KWRB 
16nm W 
200500Z 2005/2111 VRB06KT 9999 FEW120 QNH3003INS BECMG 2008/2009 VRB06KT 8000 BR SCT100 QNH3002INS BECMG 2017/2018 VRB06KT 9000 -SHRA SCT050 QNH3004INS TEMPO 2020/2024 VRB15G25KT 6000 -TSRA BKN050CB BECMG 2100/2101 23012KT 9999 NSW FEW045 QNH2999INS TX34/2020Z TN24/2008Z
NOTAMs
Click for the latest NOTAMs
NOTAMs are issued by the DoD/FAA and will open in a separate window not controlled by AirNav.

 

 
 

Would you like to see your business listed on this page?

 If your business provides an interesting product or service to pilots, flight crews, aircraft, or users of the Danville Airpark, you should consider listing it here.  To start the listing process, click on the button below
 
Add a business
 

Other Pages about Danville Airpark

Update a link
 
Copyright © AirNav, LLC. All rights reserved. Privacy Policy  Contact